Time;durP1;ratioP1;P1;durP2;ratioP2;P2;SDS_P1;SDS_P2;PMS_P1;PMS_P2;Temp;Humidity;BMP_temperature;BMP_pressure;BME280_temperature;BME280_humidity;BME280_pressure;Samples;Min_cycle;Max_cycle;Signal;HPM_P1;HPM_P2
2021/07/08 00:01:29;;;;;;;1.90;1.60;;;;;;;22.33;58.95;101020.37;1744378;80;21043;-73
2021/07/08 00:03:56;;;;;;;2.15;2.05;;;;;;;22.34;59.40;101023.39;1753218;80;20979;-72
2021/07/08 00:06:22;;;;;;;2.47;1.95;;;;;;;22.26;59.57;101030.59;1754408;80;20974;-72
2021/07/08 00:08:50;;;;;;;1.72;1.57;;;;;;;22.19;59.50;101023.96;1761345;80;21511;-73
2021/07/08 00:11:16;;;;;;;6.15;1.82;;;;;;;22.16;59.45;101023.91;1734404;80;21078;-72
2021/07/08 00:13:42;;;;;;;3.72;1.85;;;;;;;22.18;59.37;101019.59;1740790;80;21018;-72
2021/07/08 00:16:08;;;;;;;3.52;1.82;;;;;;;22.19;59.55;101016.33;1742216;80;21030;-73
2021/07/08 00:18:36;;;;;;;2.47;1.45;;;;;;;22.16;59.70;101031.23;1747779;80;21115;-72
2021/07/08 00:21:03;;;;;;;2.10;1.60;;;;;;;22.16;59.92;101025.26;1736546;80;21054;-72
2021/07/08 00:23:29;;;;;;;2.35;1.77;;;;;;;22.19;59.92;101020.41;1747543;80;21033;-73
2021/07/08 00:25:56;;;;;;;1.37;1.32;;;;;;;22.18;60.03;101021.48;1739380;80;21176;-73
2021/07/08 00:28:25;;;;;;;2.98;1.87;;;;;;;22.10;60.35;101025.45;1741733;80;21062;-73
2021/07/08 00:30:52;;;;;;;2.83;1.70;;;;;;;22.00;60.60;101026.63;1741473;80;21050;-74
2021/07/08 00:33:20;;;;;;;1.67;1.57;;;;;;;21.91;60.96;101022.98;1751613;80;21121;-73
2021/07/08 00:35:50;;;;;;;2.55;2.12;;;;;;;21.78;61.32;101026.84;1754416;80;21028;-73
2021/07/08 00:38:16;;;;;;;2.17;1.57;;;;;;;21.69;61.82;101026.97;1753812;82;21100;-73
2021/07/08 00:40:44;;;;;;;2.98;1.70;;;;;;;21.64;61.82;101029.58;1743328;81;21067;-72
2021/07/08 00:43:10;;;;;;;1.92;1.70;;;;;;;21.68;62.14;101029.91;1726721;81;21012;-73
2021/07/08 00:45:38;;;;;;;3.42;1.45;;;;;;;21.67;62.07;101026.39;1730710;81;20961;-73
2021/07/08 00:48:06;;;;;;;2.98;1.90;;;;;;;21.65;62.01;101025.81;1747939;80;21096;-73
2021/07/08 00:50:42;;;;;;;5.28;1.90;;;;;;;21.60;62.58;101025.72;1746626;80;21037;-72
2021/07/08 00:53:06;;;;;;;4.15;1.98;;;;;;;21.52;62.95;101030.20;1738302;80;21061;-72
2021/07/08 00:55:32;;;;;;;;;;;;;;;21.47;63.06;101028.20;1734145;80;21520;-72
2021/07/08 00:57:58;;;;;;;1.82;1.70;;;;;;;21.50;62.43;101026.37;1749204;81;20103;-72
2021/07/08 01:00:30;;;;;;;1.55;1.42;;;;;;;21.55;62.55;101022.94;1744886;80;21045;-73
2021/07/08 01:02:58;;;;;;;1.95;1.70;;;;;;;21.53;62.60;101026.41;1761211;80;21006;-73
2021/07/08 01:05:35;;;;;;;6.70;1.80;;;;;;;21.50;62.87;101028.27;1752315;80;21022;-72
2021/07/08 01:08:05;;;;;;;4.85;1.62;;;;;;;21.46;62.79;101026.58;1736284;80;21052;-73
2021/07/08 01:10:33;;;;;;;2.62;2.37;;;;;;;21.47;62.78;101028.20;1750042;80;21058;-72
2021/07/08 01:13:01;;;;;;;2.25;1.70;;;;;;;21.47;62.22;101024.13;1739502;80;21080;-73
2021/07/08 01:15:28;;;;;;;2.00;1.77;;;;;;;21.47;62.73;101029.56;1742119;80;21511;-72
2021/07/08 01:17:55;;;;;;;6.65;2.33;;;;;;;21.49;62.86;101034.23;1739602;80;21015;-73
2021/07/08 01:20:25;;;;;;;2.27;1.77;;;;;;;21.52;62.72;101032.91;1739273;80;21030;-73
2021/07/08 01:22:57;;;;;;;2.70;1.90;;;;;;;21.50;62.56;101030.44;1732048;80;21129;-73
2021/07/08 01:25:28;;;;;;;2.47;2.12;;;;;;;21.52;62.20;101033.73;1740602;80;21475;-73
2021/07/08 01:27:56;;;;;;;3.15;2.27;;;;;;;21.57;61.97;101039.25;1740021;82;21529;-72
2021/07/08 01:30:23;;;;;;;3.87;2.20;;;;;;;21.61;61.91;101038.77;1732715;80;21014;-72
2021/07/08 01:32:52;;;;;;;4.97;2.17;;;;;;;21.63;61.67;101038.80;1739736;81;21014;-73
2021/07/08 01:35:18;;;;;;;1.57;1.47;;;;;;;21.66;61.72;101044.27;1740595;80;21733;-73
2021/07/08 01:37:45;;;;;;;3.40;2.00;;;;;;;21.71;61.51;101044.36;1746023;80;21621;-72
2021/07/08 01:40:14;;;;;;;5.87;2.83;;;;;;;21.77;62.06;101046.08;1752683;80;21573;-72
2021/07/08 01:42:40;;;;;;;1.98;1.57;;;;;;;21.72;62.75;101043.30;1714120;83;20990;-73
2021/07/08 01:45:10;;;;;;;5.17;3.37;;;;;;;21.64;62.12;101049.11;1706046;82;21043;-72
2021/07/08 01:47:37;;;;;;;3.62;1.90;;;;;;;21.61;63.12;101044.20;1730678;81;21025;-73
2021/07/08 01:50:05;;;;;;;;;;;;;;;21.52;62.54;101047.29;1738578;81;20985;-73
2021/07/08 01:52:31;;;;;;;5.03;1.55;;;;;;;21.50;63.18;101041.29;1711930;83;20143;-73
2021/07/08 01:54:57;;;;;;;5.83;2.75;;;;;;;21.38;63.50;101051.36;1714232;82;21009;-71
2021/07/08 01:57:24;;;;;;;2.85;2.25;;;;;;;21.37;64.05;101054.58;1757756;79;20992;-73
2021/07/08 01:59:51;;;;;;;2.58;2.15;;;;;;;21.37;63.93;101055.94;1770962;80;20989;-73
2021/07/08 02:02:17;;;;;;;3.15;2.15;;;;;;;21.38;63.32;101055.42;1776558;80;21024;-72
2021/07/08 02:04:43;;;;;;;;;;;;;;;21.34;63.57;101057.80;1776412;80;20982;-72
2021/07/08 02:07:09;;;;;;;2.75;1.85;;;;;;;21.34;64.01;101055.59;1774890;79;20384;-74
2021/07/08 02:09:37;;;;;;;5.08;3.30;;;;;;;21.26;63.54;101058.70;1762298;80;21104;-73
2021/07/08 02:12:04;;;;;;;;;;;;;;;21.28;64.11;101061.99;1767848;80;21510;-74
2021/07/08 02:14:31;;;;;;;1.12;1.10;;;;;;;21.33;63.41;101060.20;1763713;79;20169;-73
2021/07/08 02:16:57;;;;;;;;;;;;;;;21.40;62.74;101061.42;1763006;79;21225;-72
2021/07/08 02:19:23;;;;;;;12.10;2.20;;;;;;;21.51;62.42;101066.00;1767486;79;20138;-72
2021/07/08 02:21:50;;;;;;;3.08;2.20;;;;;;;21.53;62.14;101069.30;1764864;79;21080;-72
2021/07/08 02:24:16;;;;;;;;;;;;;;;21.65;62.17;101064.34;1759020;80;21016;-71
2021/07/08 02:26:45;;;;;;;4.62;1.82;;;;;;;21.77;62.55;101065.08;1762078;80;20161;-73
2021/07/08 02:29:13;;;;;;;2.72;2.52;;;;;;;21.89;61.88;101069.09;1763934;80;21067;-72
2021/07/08 02:31:39;;;;;;;3.85;1.67;;;;;;;22.18;60.83;101065.74;1761893;81;20985;-71
2021/07/08 02:34:05;;;;;;;6.20;2.22;;;;;;;22.54;59.73;101071.73;1763486;80;20997;-72
2021/07/08 02:36:31;;;;;;;;;;;;;;;22.84;59.64;101069.14;1763337;80;20985;-72
2021/07/08 02:38:58;;;;;;;7.87;2.12;;;;;;;23.13;58.52;101062.98;1758925;80;20199;-73
2021/07/08 02:41:24;;;;;;;3.47;1.98;;;;;;;23.36;57.43;101067.34;1755731;80;21527;-72
2021/07/08 02:43:51;;;;;;;5.05;2.12;;;;;;;23.59;56.71;101068.92;1748597;80;21094;-72
2021/07/08 02:46:17;;;;;;;1.80;1.70;;;;;;;23.84;55.99;101065.62;1738587;80;20989;-72
2021/07/08 02:48:44;;;;;;;1.12;1.00;;;;;;;24.10;55.52;101064.48;1746180;80;20997;-74
2021/07/08 02:51:11;;;;;;;2.12;1.92;;;;;;;24.35;54.50;101069.82;1755967;81;21005;-73
2021/07/08 02:53:38;;;;;;;4.87;1.50;;;;;;;24.56;54.21;101070.79;1748705;81;21121;-74
2021/07/08 02:56:09;;;;;;;2.45;2.02;;;;;;;24.74;53.20;101073.62;1747513;80;20974;-73
2021/07/08 02:58:32;;;;;;;7.20;1.40;;;;;;;24.89;52.81;101069.59;1735289;81;21022;-74
2021/07/08 03:00:58;;;;;;;1.72;1.62;;;;;;;25.14;52.51;101072.13;1741205;82;21005;-73
2021/07/08 03:03:24;;;;;;;1.82;1.22;;;;;;;25.47;51.60;101072.25;1743945;81;21074;-73
2021/07/08 03:05:51;;;;;;;1.87;1.15;;;;;;;25.82;50.78;101074.73;1746691;81;21006;-72
2021/07/08 03:08:17;;;;;;;1.47;1.07;;;;;;;26.06;49.64;101075.03;1742722;82;21050;-72
2021/07/08 03:10:45;;;;;;;2.45;1.57;;;;;;;26.21;49.12;101075.02;1742720;81;21034;-72
2021/07/08 03:13:10;;;;;;;3.47;1.25;;;;;;;26.44;48.58;101082.34;1745698;80;20959;-74
2021/07/08 03:15:38;;;;;;;4.15;1.00;;;;;;;26.73;47.91;101074.91;1746479;81;20998;-73
2021/07/08 03:18:06;;;;;;;2.02;1.30;;;;;;;26.98;47.22;101073.45;1752151;80;21045;-73
2021/07/08 03:20:36;;;;;;;2.22;1.20;;;;;;;27.21;46.54;101082.09;1742514;80;20973;-73
2021/07/08 03:23:06;;;;;;;1.00;0.75;;;;;;;27.43;45.69;101077.63;1746906;80;21041;-74
2021/07/08 03:25:33;;;;;;;2.98;1.32;;;;;;;27.67;45.60;101083.21;1743165;80;21052;-73
2021/07/08 03:28:00;;;;;;;3.70;0.88;;;;;;;27.98;44.78;101084.91;1746982;80;21009;-73
2021/07/08 03:30:30;;;;;;;4.70;1.05;;;;;;;28.22;44.15;101084.94;1744797;80;21055;-74
2021/07/08 03:32:56;;;;;;;1.10;1.00;;;;;;;28.52;43.44;101081.94;1747140;80;21006;-72
2021/07/08 03:35:27;;;;;;;3.67;1.37;;;;;;;28.78;42.86;101076.13;1749632;80;21069;-73
2021/07/08 03:37:54;;;;;;;4.03;1.60;;;;;;;28.94;42.25;101083.64;1748720;80;20961;-73
2021/07/08 03:40:22;;;;;;;2.17;1.47;;;;;;;28.97;42.08;101083.59;1736580;80;21032;-73
2021/07/08 03:42:52;;;;;;;4.85;0.90;;;;;;;29.04;41.97;101090.91;1729138;80;21040;-74
2021/07/08 03:45:20;;;;;;;2.40;0.88;;;;;;;29.18;42.28;101089.12;1726994;81;21588;-71
2021/07/08 03:47:47;;;;;;;7.70;1.05;;;;;;;29.47;41.50;101090.33;1737738;81;20966;-74
2021/07/08 03:50:14;;;;;;;2.92;1.10;;;;;;;29.72;40.94;101084.75;1738114;81;20973;-71
2021/07/08 03:52:42;;;;;;;1.95;0.95;;;;;;;29.64;40.42;101049.97;1738560;81;20965;-74
2021/07/08 03:55:13;;;;;;;1.60;1.02;;;;;;;30.02;39.79;101090.32;1736253;80;21024;-72
2021/07/08 03:57:54;;;;;;;1.85;0.93;;;;;;;30.03;39.54;101091.97;1737706;81;20963;-74
2021/07/08 04:00:36;;;;;;;4.33;0.88;;;;;;;30.03;39.62;101087.27;1728717;81;21589;-74
2021/07/08 04:03:14;;;;;;;2.27;1.07;;;;;;;30.12;39.24;101092.06;1744739;81;21526;-74
2021/07/08 04:05:42;;;;;;;2.00;0.98;;;;;;;30.21;39.37;101098.50;1738352;81;21073;-74
2021/07/08 04:08:10;;;;;;;2.25;1.00;;;;;;;30.44;39.44;101096.73;1735004;81;21129;-74
2021/07/08 04:10:40;;;;;;;1.20;1.10;;;;;;;30.60;38.89;101098.08;1737496;81;21113;-73
2021/07/08 04:13:11;;;;;;;6.00;2.72;;;;;;;30.73;38.69;101095.64;1741234;81;20987;-74
2021/07/08 04:15:38;;;;;;;7.30;6.65;;;;;;;30.89;38.75;101103.01;1744287;81;21041;-73
2021/07/08 04:18:05;;;;;;;4.83;1.77;;;;;;;31.10;38.26;101105.63;1735817;81;21216;-74
2021/07/08 04:20:34;;;;;;;5.60;2.05;;;;;;;31.26;37.56;101103.91;1736338;81;20997;-74
2021/07/08 04:23:01;;;;;;;3.60;1.70;;;;;;;31.33;37.52;101110.63;1728834;81;21593;-75
2021/07/08 04:25:28;;;;;;;5.17;1.37;;;;;;;31.40;37.28;101114.31;1737621;81;21018;-73
2021/07/08 04:27:54;;;;;;;5.47;2.35;;;;;;;31.53;37.09;101117.64;1738751;81;21634;-74
2021/07/08 04:30:24;;;;;;;4.47;1.65;;;;;;;31.72;37.02;101112.50;1731578;81;21072;-73
2021/07/08 04:32:53;;;;;;;4.12;1.87;;;;;;;31.86;36.62;101117.39;1732618;81;21025;-73
2021/07/08 04:35:21;;;;;;;5.50;1.70;;;;;;;32.00;36.48;101115.94;1755274;81;21061;-73
2021/07/08 04:37:49;;;;;;;7.95;2.47;;;;;;;32.03;36.11;101118.68;1751527;81;21526;-74
2021/07/08 04:40:19;;;;;;;4.53;2.20;;;;;;;32.04;36.05;101116.96;1755835;81;21633;-72
2021/07/08 04:42:51;;;;;;;7.05;2.52;;;;;;;32.11;36.23;101120.66;1750946;80;21052;-72
2021/07/08 04:45:18;;;;;;;4.35;1.98;;;;;;;32.14;36.15;101118.67;1739955;80;21022;-72
2021/07/08 04:47:46;;;;;;;6.75;1.77;;;;;;;32.16;36.06;101119.16;1740931;80;21038;-73
2021/07/08 04:50:17;;;;;;;4.03;2.67;;;;;;;32.13;36.22;101123.92;1758669;80;20993;-71
2021/07/08 04:52:45;;;;;;;6.97;2.45;;;;;;;32.18;36.39;101125.17;1762503;80;21026;-71
2021/07/08 04:55:13;;;;;;;7.60;2.12;;;;;;;32.17;36.09;101131.27;1762991;80;21036;-70
2021/07/08 04:57:39;;;;;;;5.28;1.95;;;;;;;32.23;36.13;101134.70;1762722;80;21104;-71
2021/07/08 05:00:09;;;;;;;7.05;2.55;;;;;;;32.24;36.24;101132.18;1753529;80;20978;-71
2021/07/08 05:02:38;;;;;;;6.65;1.77;;;;;;;32.18;36.00;101132.07;1764459;79;21025;-72
2021/07/08 05:05:07;;;;;;;6.03;2.10;;;;;;;32.05;36.91;101137.09;1766404;79;20993;-72
2021/07/08 05:07:35;;;;;;;9.48;2.42;;;;;;;32.10;36.68;101132.81;1762754;79;21036;-71
2021/07/08 05:10:07;;;;;;;5.42;3.70;;;;;;;32.22;36.46;101133.63;1767248;79;21049;-71
2021/07/08 05:12:33;;;;;;;3.47;1.90;;;;;;;32.30;36.15;101139.75;1762942;79;21084;-71
2021/07/08 05:15:00;;;;;;;3.55;2.10;;;;;;;32.39;35.98;101140.62;1784789;79;21013;-71
2021/07/08 05:17:26;;;;;;;7.60;2.35;;;;;;;32.51;35.96;101144.16;1773291;80;21052;-72
2021/07/08 05:19:53;;;;;;;12.82;3.42;;;;;;;32.64;35.92;101142.47;1778086;79;21087;-72
2021/07/08 05:22:21;;;;;;;10.75;2.33;;;;;;;32.73;36.17;101144.12;1778304;79;21068;-73
2021/07/08 05:24:48;;;;;;;13.72;3.02;;;;;;;32.87;35.96;101139.88;1780576;79;20981;-71
2021/07/08 05:27:18;;;;;;;5.10;2.83;;;;;;;33.04;35.57;101145.19;1786390;79;21092;-70
2021/07/08 05:29:46;;;;;;;10.98;2.90;;;;;;;33.08;35.42;101152.52;1782726;79;20985;-71
2021/07/08 05:32:15;;;;;;;5.33;2.70;;;;;;;33.19;34.89;101145.33;1783753;79;21569;-73
2021/07/08 05:34:42;;;;;;;9.23;2.62;;;;;;;33.18;34.69;101149.25;1784822;79;21067;-70
2021/07/08 05:37:09;;;;;;;10.03;2.65;;;;;;;33.11;35.52;101146.37;1785039;79;20966;-71
2021/07/08 05:39:35;;;;;;;4.83;2.47;;;;;;;33.16;34.76;101143.47;1790267;79;21005;-73
2021/07/08 05:42:02;;;;;;;6.72;2.98;;;;;;;33.27;34.36;101149.50;1784105;80;21115;-73
2021/07/08 05:44:28;;;;;;;5.20;1.92;;;;;;;33.07;34.45;101118.32;1780482;79;21083;-75
2021/07/08 05:46:54;;;;;;;6.45;2.40;;;;;;;33.24;34.55;101150.71;1786485;79;21020;-74
2021/07/08 05:49:20;;;;;;;11.10;2.85;;;;;;;33.30;34.49;101150.80;1787545;79;21044;-74
2021/07/08 05:51:46;;;;;;;3.22;2.27;;;;;;;33.36;34.70;101149.50;1787232;79;21001;-74
2021/07/08 05:54:12;;;;;;;4.67;1.65;;;;;;;33.41;34.56;101147.96;1782849;79;21042;-74
2021/07/08 05:56:39;;;;;;;3.55;1.65;;;;;;;33.42;34.74;101148.22;1786744;80;21036;-73
2021/07/08 05:59:05;;;;;;;9.85;3.25;;;;;;;33.51;34.57;101145.44;1783032;80;20988;-74
2021/07/08 06:01:31;;;;;;;8.68;1.85;;;;;;;33.50;34.13;101148.78;1779628;79;21131;-74
2021/07/08 06:03:57;;;;;;;2.80;1.72;;;;;;;33.42;33.51;101145.45;1784503;80;21009;-72
2021/07/08 06:06:23;;;;;;;3.83;1.77;;;;;;;33.34;33.12;101149.01;1776574;79;21606;-74
2021/07/08 06:08:49;;;;;;;6.65;2.20;;;;;;;33.28;33.80;101151.11;1784125;80;20994;-72
2021/07/08 06:11:16;;;;;;;1.62;1.27;;;;;;;33.26;34.23;101149.24;1788234;79;21064;-76
2021/07/08 06:13:43;;;;;;;3.87;1.45;;;;;;;33.26;32.84;101145.09;1782092;79;21106;-76
2021/07/08 06:16:10;;;;;;;3.40;1.07;;;;;;;33.24;32.62;101142.42;1782592;79;21144;-75
2021/07/08 06:18:39;;;;;;;3.65;1.77;;;;;;;33.07;33.48;101134.31;1782153;80;21089;-75
2021/07/08 06:21:06;;;;;;;4.12;1.52;;;;;;;33.11;34.04;101151.89;1761047;79;21022;-76
2021/07/08 06:23:33;;;;;;;7.87;2.25;;;;;;;33.05;32.86;101152.34;1782391;80;21521;-74
2021/07/08 06:25:59;;;;;;;7.33;1.82;;;;;;;33.05;33.11;101151.77;1786111;79;21056;-76
2021/07/08 06:28:26;;;;;;;2.52;1.32;;;;;;;33.11;32.58;101147.75;1782247;80;21045;-75
2021/07/08 06:30:53;;;;;;;8.65;1.70;;;;;;;33.05;33.01;101150.39;1773315;79;21032;-73
2021/07/08 06:33:19;;;;;;;4.97;1.10;;;;;;;33.03;33.73;101156.00;1776724;78;21101;-75
2021/07/08 06:35:46;;;;;;;4.65;1.35;;;;;;;33.08;33.19;101151.72;1718056;81;21072;-75
2021/07/08 06:38:13;;;;;;;1.12;0.78;;;;;;;33.13;32.64;101155.17;1748099;80;21036;-75
2021/07/08 06:40:39;;;;;;;5.62;1.20;;;;;;;33.30;32.07;101157.70;1745740;80;21083;-75
2021/07/08 06:43:05;;;;;;;3.52;1.10;;;;;;;33.48;31.93;101155.78;1751904;80;21057;-75
2021/07/08 06:45:35;;;;;;;2.75;0.95;;;;;;;33.58;32.03;101158.22;1731987;80;20992;-74
2021/07/08 06:48:02;;;;;;;4.10;1.67;;;;;;;33.76;31.85;101157.69;1746058;81;21034;-75
2021/07/08 06:50:31;;;;;;;2.08;0.80;;;;;;;33.80;31.23;101160.62;1752297;77;21010;-76
2021/07/08 06:52:59;;;;;;;3.27;0.98;;;;;;;33.59;31.35;101161.23;1744763;80;21068;-79
2021/07/08 06:57:22;;;;;;;4.70;0.93;;;;;;;33.48;31.26;101157.97;1766931;78;22899;-77
2021/07/08 06:59:48;;;;;;;2.77;1.77;;;;;;;33.31;31.94;101160.72;1701853;81;21039;-77
2021/07/08 07:02:14;;;;;;;9.63;1.42;;;;;;;33.18;31.58;101169.96;1758181;80;21583;-77
2021/07/08 07:04:41;;;;;;;5.22;1.85;;;;;;;33.10;31.34;101158.54;1769864;80;21124;-78
2021/07/08 07:07:09;;;;;;;2.45;1.30;;;;;;;33.08;31.39;101158.05;1768785;80;21033;-79
2021/07/08 07:09:35;;;;;;;6.80;2.30;;;;;;;33.14;31.19;101159.55;1778327;79;21606;-79
2021/07/08 07:12:02;;;;;;;3.58;0.90;;;;;;;33.24;31.16;101155.66;1770437;80;21015;-79
2021/07/08 07:14:29;;;;;;;8.58;1.20;;;;;;;33.25;30.96;101160.06;1735921;81;21045;-80
2021/07/08 07:16:55;;;;;;;4.10;1.35;;;;;;;33.22;31.55;101166.22;1735147;81;21578;-77
2021/07/08 07:19:22;;;;;;;4.87;1.12;;;;;;;33.28;32.49;101164.12;1742552;81;21053;-77
2021/07/08 07:21:48;;;;;;;7.28;1.17;;;;;;;33.52;31.26;101166.43;1736469;81;21075;-78
2021/07/08 07:24:14;;;;;;;2.25;0.98;;;;;;;33.49;30.75;101169.28;1711130;81;21492;-79
2021/07/08 07:26:40;;;;;;;2.95;0.93;;;;;;;33.40;31.01;101172.60;1704728;83;20998;-79
2021/07/08 07:29:06;;;;;;;6.70;1.15;;;;;;;33.39;31.28;101168.20;1706390;83;21858;-76
2021/07/08 07:31:32;;;;;;;3.10;0.90;;;;;;;33.44;31.19;101165.28;1707019;83;21051;-77
2021/07/08 07:33:58;;;;;;;8.43;0.70;;;;;;;33.44;30.65;101165.86;1676621;84;21089;-78
2021/07/08 07:36:24;;;;;;;3.20;0.53;;;;;;;33.39;30.19;101164.62;1654462;86;21537;-77
2021/07/08 07:38:51;;;;;;;5.87;0.60;;;;;;;33.28;30.56;101162.73;1676057;86;21582;-79
2021/07/08 07:41:17;;;;;;;4.80;1.60;;;;;;;33.19;30.65;101168.81;1671147;84;21516;-78
2021/07/08 07:43:45;;;;;;;3.40;0.57;;;;;;;33.21;30.92;101166.53;1674723;84;20979;-79
2021/07/08 07:46:11;;;;;;;3.95;0.47;;;;;;;33.27;30.70;101164.69;1659917;86;21089;-78
2021/07/08 07:48:38;;;;;;;3.00;1.10;;;;;;;33.21;30.11;101162.39;1675498;85;21066;-76
2021/07/08 07:51:04;;;;;;;1.62;0.57;;;;;;;33.13;30.55;101170.36;1658104;86;20987;-78
2021/07/08 07:53:30;;;;;;;5.22;1.07;;;;;;;32.97;30.78;101165.00;1668467;85;21055;-76
2021/07/08 07:55:57;;;;;;;6.50;0.90;;;;;;;32.63;30.88;101169.26;1663628;85;21058;-77
2021/07/08 07:58:26;;;;;;;0.80;0.60;;;;;;;32.26;31.37;101180.94;1665192;85;21095;-77
2021/07/08 08:00:51;;;;;;;4.15;0.98;;;;;;;31.96;31.69;101182.48;1668412;86;21602;-78
2021/07/08 08:03:17;;;;;;;0.50;0.50;;;;;;;31.69;32.41;101186.98;1669371;84;21086;-77
2021/07/08 08:05:57;;;;;;;2.08;0.80;;;;;;;31.46;33.11;101181.12;1682677;84;21023;-78
2021/07/08 08:08:30;;;;;;;1.50;0.90;;;;;;;31.24;32.83;101182.13;1640130;86;21060;-77
2021/07/08 08:10:59;;;;;;;6.95;0.68;;;;;;;31.12;32.87;101187.89;1664389;84;21599;-79
2021/07/08 08:13:27;;;;;;;2.08;0.50;;;;;;;31.11;33.04;101188.47;1725978;82;21075;-78
2021/07/08 08:15:53;;;;;;;2.15;0.50;;;;;;;31.05;32.05;101199.33;1719370;82;21090;-77
2021/07/08 08:18:25;;;;;;;0.88;0.50;;;;;;;30.93;32.12;101181.95;1680764;84;21121;-77
2021/07/08 08:20:53;;;;;;;1.85;0.60;;;;;;;30.90;32.50;101188.60;1725125;81;21114;-79
2021/07/08 08:23:21;;;;;;;2.33;0.55;;;;;;;30.88;32.46;101193.59;1692821;83;21013;-77
2021/07/08 08:25:47;;;;;;;2.33;0.65;;;;;;;30.81;32.78;101195.36;1668462;84;21073;-77
2021/07/08 08:28:14;;;;;;;2.05;0.60;;;;;;;30.72;32.89;101189.73;1661540;84;21011;-76
2021/07/08 08:30:40;;;;;;;2.85;0.80;;;;;;;30.71;33.26;101188.12;1660721;84;21011;-76
2021/07/08 08:33:07;;;;;;;2.55;0.62;;;;;;;30.76;33.10;101183.91;1662002;84;21075;-70
2021/07/08 08:35:34;;;;;;;8.85;1.15;;;;;;;30.75;33.05;101185.01;1717274;82;21012;-77
2021/07/08 08:38:00;;;;;;;3.58;0.50;;;;;;;30.81;32.99;101194.80;1732144;82;21049;-78
2021/07/08 08:40:27;;;;;;;0.98;0.47;;;;;;;30.92;32.54;101194.08;1701156;82;21029;-78
2021/07/08 08:42:54;;;;;;;1.07;0.50;;;;;;;30.99;32.09;101188.17;1675977;84;21072;-79
2021/07/08 08:45:20;;;;;;;4.28;1.30;;;;;;;31.01;31.91;101197.75;1697299;82;21069;-78
2021/07/08 08:48:03;;;;;;;2.22;0.65;;;;;;;30.99;32.36;101195.06;1711257;82;21185;-78
2021/07/08 08:50:37;;;;;;;2.85;0.53;;;;;;;30.83;32.43;101187.05;1721227;81;20968;-76
2021/07/08 08:53:05;;;;;;;1.75;0.50;;;;;;;30.58;32.70;101184.79;1732615;81;21004;-76
2021/07/08 08:55:35;;;;;;;6.05;0.65;;;;;;;30.47;33.08;101199.28;1725087;82;21502;-79
2021/07/08 08:58:05;;;;;;;3.92;0.35;;;;;;;30.50;32.90;101195.94;1721796;82;21121;-79
2021/07/08 09:00:51;;;;;;;0.55;0.35;;;;;;;30.53;32.89;101184.30;1718985;82;21014;-79
2021/07/08 09:03:29;;;;;;;3.10;0.88;;;;;;;30.53;33.34;101191.19;1719369;82;21054;-79
2021/07/08 09:06:05;;;;;;;1.57;0.55;;;;;;;30.54;32.92;101190.08;1721741;82;21049;-78
2021/07/08 09:08:35;;;;;;;1.12;0.45;;;;;;;30.60;32.86;101183.36;1718506;82;21023;-80
2021/07/08 09:11:09;;;;;;;4.15;0.53;;;;;;;30.72;32.79;101180.10;1717021;82;21093;-77
2021/07/08 09:13:51;;;;;;;5.92;0.60;;;;;;;30.85;32.84;101182.62;1717214;82;21089;-78
2021/07/08 09:16:28;;;;;;;0.80;0.65;;;;;;;30.86;32.30;101193.89;1720923;82;21514;-78
2021/07/08 09:19:04;;;;;;;2.17;0.47;;;;;;;30.86;32.25;101190.58;1720589;82;21058;-77
2021/07/08 09:21:34;;;;;;;1.17;0.57;;;;;;;30.86;32.32;101185.07;1717114;82;21000;-79
2021/07/08 09:24:08;;;;;;;3.45;0.68;;;;;;;30.89;32.48;101184.20;1725773;82;21049;-78
2021/07/08 09:26:38;;;;;;;6.10;1.32;;;;;;;30.96;32.77;101184.08;1723492;82;21014;-79
2021/07/08 09:29:08;;;;;;;5.08;0.57;;;;;;;31.07;32.82;101191.58;1729540;82;20999;-79
2021/07/08 09:31:36;;;;;;;4.37;0.40;;;;;;;31.18;32.20;101205.97;1725676;82;21006;-79
2021/07/08 09:34:19;;;;;;;2.33;0.50;;;;;;;31.17;32.50;101199.62;1705053;82;21014;-77
2021/07/08 09:36:48;;;;;;;6.78;0.78;;;;;;;31.08;32.71;101197.89;1670524;85;20981;-78
2021/07/08 09:39:16;;;;;;;5.92;0.70;;;;;;;30.95;32.98;101187.13;1682904;85;21049;-77
2021/07/08 09:41:50;;;;;;;1.17;0.68;;;;;;;30.64;33.44;101184.95;1677488;85;21031;-79
2021/07/08 09:44:22;;;;;;;0.60;0.60;;;;;;;30.40;34.14;101190.06;1677106;84;21081;-77
2021/07/08 09:46:49;;;;;;;1.50;0.60;;;;;;;30.24;34.20;101195.52;1693784;83;21026;-78
2021/07/08 09:49:16;;;;;;;1.05;0.50;;;;;;;30.12;33.91;101182.78;1698669;83;21108;-79
2021/07/08 09:51:44;;;;;;;2.35;0.45;;;;;;;30.07;34.13;101178.20;1685017;84;21034;-78
2021/07/08 09:54:20;;;;;;;0.50;0.50;;;;;;;30.09;34.25;101183.64;1698977;83;21093;-77
2021/07/08 09:56:51;;;;;;;1.17;0.70;;;;;;;30.12;34.21;101190.50;1721029;82;21075;-78
2021/07/08 09:59:27;;;;;;;2.47;0.62;;;;;;;30.07;34.07;101182.33;1733690;82;21155;-79
2021/07/08 10:01:58;;;;;;;1.57;0.53;;;;;;;30.01;33.98;101178.84;1670041;82;21118;-78
2021/07/08 10:04:25;;;;;;;4.87;0.50;;;;;;;29.95;33.99;101184.70;1657336;85;21137;-77
2021/07/08 10:06:54;;;;;;;7.15;0.93;;;;;;;29.92;33.88;101179.25;1664047;85;21021;-79
2021/07/08 10:09:25;;;;;;;2.87;0.53;;;;;;;29.96;33.46;101171.23;1645717;86;21087;-79
2021/07/08 10:11:55;;;;;;;4.90;1.02;;;;;;;30.00;33.44;101166.20;1656759;85;21563;-78
2021/07/08 10:14:24;;;;;;;2.33;0.82;;;;;;;30.04;33.55;101168.60;1661124;85;21042;-80
2021/07/08 10:16:54;;;;;;;4.15;0.75;;;;;;;30.02;33.38;101167.28;1698240;83;21125;-77
2021/07/08 10:19:24;;;;;;;1.67;0.40;;;;;;;30.08;33.32;101160.03;1705299;83;21036;-79
2021/07/08 10:21:52;;;;;;;0.45;0.45;;;;;;;30.19;32.90;101165.35;1660982;85;20991;-78
2021/07/08 10:24:19;;;;;;;2.47;0.40;;;;;;;30.32;32.52;101161.02;1724165;82;21054;-79
2021/07/08 10:26:47;;;;;;;0.20;0.20;;;;;;;30.39;31.86;101158.73;1725840;83;21082;-78
2021/07/08 10:29:15;;;;;;;0.53;0.53;;;;;;;30.42;31.76;101145.19;1725941;82;21058;-79
2021/07/08 10:31:45;;;;;;;0.62;0.20;;;;;;;30.49;31.91;101153.03;1724601;82;21062;-79
2021/07/08 10:34:16;;;;;;;1.65;0.37;;;;;;;30.59;31.81;101146.52;1714170;82;21637;-77
2021/07/08 10:36:50;;;;;;;2.05;0.57;;;;;;;30.69;31.77;101140.84;1695171;84;21064;-77
2021/07/08 10:39:21;;;;;;;0.35;0.30;;;;;;;30.55;31.77;101106.98;1694251;84;21043;-79
2021/07/08 10:41:58;;;;;;;0.93;0.50;;;;;;;30.87;31.48;101143.22;1697674;84;20999;-76
2021/07/08 10:44:38;;;;;;;5.30;0.82;;;;;;;30.92;31.23;101143.72;1689851;84;21029;-77
2021/07/08 10:47:24;;;;;;;1.40;0.50;;;;;;;30.89;30.98;101149.23;1698223;84;21026;-79
2021/07/08 10:49:49;;;;;;;0.68;0.47;;;;;;;30.85;31.01;101151.80;1695476;84;21014;-76
2021/07/08 10:52:21;;;;;;;7.95;0.40;;;;;;;30.85;30.99;101149.05;1698595;84;21004;-79
2021/07/08 10:54:49;;;;;;;2.70;0.50;;;;;;;30.82;31.31;101160.66;1691893;84;21171;-77
2021/07/08 10:57:37;;;;;;;2.17;0.25;;;;;;;30.80;31.60;101149.72;1716379;82;21027;-78
2021/07/08 11:00:10;;;;;;;0.93;0.40;;;;;;;30.80;31.76;101145.59;1695714;83;21603;-74
2021/07/08 11:02:50;;;;;;;4.05;0.40;;;;;;;30.84;31.84;101145.23;1630568;87;21109;-76
2021/07/08 11:05:55;;;;;;;0.45;0.40;;;;;;;30.91;32.00;101139.33;1628200;88;21055;-79
2021/07/08 11:08:55;;;;;;;0.95;0.53;;;;;;;30.94;31.77;101135.40;1621080;88;21083;-78
2021/07/08 11:11:27;;;;;;;0.42;0.40;;;;;;;30.80;31.83;101124.38;1635561;84;21071;-78
2021/07/08 11:13:58;;;;;;;4.33;0.50;;;;;;;30.84;32.20;101142.47;1665777;84;21098;-80
2021/07/08 11:16:47;;;;;;;5.67;0.37;;;;;;;30.77;32.38;101146.99;1636299;86;21083;-79
2021/07/08 11:19:25;;;;;;;0.45;0.30;;;;;;;30.73;32.44;101140.47;1683023;85;21035;-77
2021/07/08 11:22:13;;;;;;;5.00;1.05;;;;;;;30.78;32.62;101144.52;1690163;84;21003;-79
2021/07/08 11:24:45;;;;;;;3.20;0.75;;;;;;;30.86;32.89;101130.03;1688136;85;21426;-79
2021/07/08 11:27:29;;;;;;;0.53;0.40;;;;;;;30.91;32.61;101135.20;1688352;85;20978;-79
2021/07/08 11:30:11;;;;;;;1.92;0.65;;;;;;;30.88;32.82;101138.55;1633520;86;20963;-76
2021/07/08 11:32:53;;;;;;;4.05;0.78;;;;;;;30.82;32.97;101142.77;1649774;87;21119;-79
2021/07/08 11:35:23;;;;;;;9.98;0.82;;;;;;;30.79;33.20;101148.87;1677502;84;21015;-78
2021/07/08 11:37:56;;;;;;;0.70;0.40;;;;;;;30.81;33.06;101138.95;1680609;84;21519;-76